Time;durP1;ratioP1;P1;durP2;ratioP2;P2;SDS_P1;SDS_P2;PMS_P1;PMS_P2;Temp;Humidity;BMP_temperature;BMP_pressure;BME280_temperature;BME280_humidity;BME280_pressure;Samples;Min_cycle;Max_cycle;Signal;HPM_P1;HPM_P2
2022/03/16 00:01:31;;;;;;;11.68;8.77;;;;;;;;;;4969975;28;93233;-68
2022/03/16 00:03:58;;;;;;;10.57;8.38;;;;;;;;;;4961686;28;93659;-68
2022/03/16 00:06:25;;;;;;;12.57;8.75;;;;;;;;;;4973380;28;92992;-68
2022/03/16 00:08:51;;;;;;;16.85;9.65;;;;;;;;;;4975757;28;93828;-68
2022/03/16 00:11:18;;;;;;;12.88;10.23;;;;;;;;;;4976325;28;92772;-68
2022/03/16 00:13:44;;;;;;;24.00;10.23;;;;;;;;;;4972925;28;94762;-69
2022/03/16 00:16:10;;;;;;;18.13;9.95;;;;;;;;;;4977940;28;94009;-68
2022/03/16 00:18:37;;;;;;;17.25;9.75;;;;;;;;;;4974994;28;92484;-68
2022/03/16 00:21:03;;;;;;;14.48;9.52;;;;;;;;;;4974261;28;94637;-69
2022/03/16 00:23:29;;;;;;;17.23;9.55;;;;;;;;;;4974873;28;93386;-68
2022/03/16 00:25:56;;;;;;;13.57;9.55;;;;;;;;;;4975576;28;92490;-68
2022/03/16 00:28:22;;;;;;;25.45;9.95;;;;;;;;;;4979224;28;92601;-69
2022/03/16 00:30:48;;;;;;;16.15;10.00;;;;;;;;;;4975248;28;92116;-68
2022/03/16 00:33:15;;;;;;;16.17;9.85;;;;;;;;;;4974875;28;92405;-69
2022/03/16 00:35:41;;;;;;;18.60;11.65;;;;;;;;;;4976090;28;93210;-68
2022/03/16 00:38:09;;;;;;;12.88;9.38;;;;;;;;;;4953866;28;95514;-68
2022/03/16 00:40:36;;;;;;;16.63;10.73;;;;;;;;;;4969393;28;95595;-68
2022/03/16 00:43:02;;;;;;;20.95;11.05;;;;;;;;;;4974353;28;93289;-69
2022/03/16 00:45:28;;;;;;;12.50;9.70;;;;;;;;;;4974110;28;92402;-68
2022/03/16 00:47:54;;;;;;;14.07;9.60;;;;;;;;;;4977513;28;93221;-68
2022/03/16 00:50:21;;;;;;;12.05;8.35;;;;;;;;;;4975230;28;93111;-68
2022/03/16 00:52:47;;;;;;;14.43;8.48;;;;;;;;;;4981664;28;93449;-68
2022/03/16 00:55:13;;;;;;;11.80;8.73;;;;;;;;;;4969003;28;92638;-68
2022/03/16 00:57:40;;;;;;;14.88;9.13;;;;;;;;;;4961741;28;92521;-68
2022/03/16 01:00:06;;;;;;;13.07;8.50;;;;;;;;;;4988419;28;93269;-69
2022/03/16 01:02:33;;;;;;;14.30;9.48;;;;;;;;;;4972835;28;95884;-70
2022/03/16 01:04:59;;;;;;;25.13;9.00;;;;;;;;;;4975311;28;92443;-69
2022/03/16 01:07:26;;;;;;;15.88;9.73;;;;;;;;;;4974406;28;93048;-69
2022/03/16 01:09:52;;;;;;;11.70;8.77;;;;;;;;;;4977487;28;93482;-69
2022/03/16 01:12:20;;;;;;;11.00;9.05;;;;;;;;;;4974974;28;93968;-69
2022/03/16 01:14:46;;;;;;;16.33;9.68;;;;;;;;;;4971923;28;93805;-69
2022/03/16 01:17:13;;;;;;;10.93;8.40;;;;;;;;;;4974883;28;93355;-69
2022/03/16 01:19:39;;;;;;;14.20;9.30;;;;;;;;;;4974916;28;93473;-69
2022/03/16 01:22:06;;;;;;;16.35;9.20;;;;;;;;;;4962202;28;93451;-68
2022/03/16 01:24:32;;;;;;;11.50;8.95;;;;;;;;;;4973800;28;92583;-67
2022/03/16 01:26:59;;;;;;;15.90;9.30;;;;;;;;;;4972786;28;96400;-68
2022/03/16 01:29:26;;;;;;;15.50;9.40;;;;;;;;;;4974321;28;94957;-68
2022/03/16 01:31:52;;;;;;;11.38;8.23;;;;;;;;;;4977649;28;92569;-67
2022/03/16 01:34:19;;;;;;;13.85;9.63;;;;;;;;;;4973199;28;94092;-68
2022/03/16 01:36:45;;;;;;;14.90;9.23;;;;;;;;;;4973256;28;93934;-68
2022/03/16 01:39:11;;;;;;;14.70;9.45;;;;;;;;;;4974473;28;93755;-70
2022/03/16 01:41:38;;;;;;;16.13;9.43;;;;;;;;;;4974608;28;93248;-68
2022/03/16 01:44:04;;;;;;;12.55;8.93;;;;;;;;;;4963441;28;91717;-68
2022/03/16 01:46:35;;;;;;;14.10;8.25;;;;;;;;;;4968748;28;92759;-68
2022/03/16 01:49:03;;;;;;;15.32;8.90;;;;;;;;;;4973776;28;93457;-68
2022/03/16 01:51:30;;;;;;;11.75;8.73;;;;;;;;;;4972370;28;94791;-68
2022/03/16 01:53:57;;;;;;;20.58;9.27;;;;;;;;;;4974893;28;96193;-68
2022/03/16 01:56:23;;;;;;;11.98;8.65;;;;;;;;;;4974760;28;92456;-69
2022/03/16 01:58:49;;;;;;;17.70;9.27;;;;;;;;;;4973050;28;93465;-68
2022/03/16 02:01:16;;;;;;;16.33;9.18;;;;;;;;;;4973075;28;93223;-68
2022/03/16 02:03:43;;;;;;;13.35;9.35;;;;;;;;;;4974326;28;92453;-69
2022/03/16 02:06:10;;;;;;;12.63;8.93;;;;;;;;;;4973120;28;93402;-68
2022/03/16 02:08:36;;;;;;;21.90;8.88;;;;;;;;;;4974861;28;92354;-68
2022/03/16 02:11:03;;;;;;;13.80;8.05;;;;;;;;;;4973671;28;93069;-68
2022/03/16 02:13:32;;;;;;;11.18;7.50;;;;;;;;;;4965597;28;93077;-67
2022/03/16 02:15:58;;;;;;;15.85;8.90;;;;;;;;;;4970709;28;95948;-68
2022/03/16 02:18:24;;;;;;;10.15;8.20;;;;;;;;;;4968731;28;95427;-68
2022/03/16 02:20:51;;;;;;;10.68;8.70;;;;;;;;;;4967937;28;93642;-68
2022/03/16 02:23:17;;;;;;;9.13;8.10;;;;;;;;;;4969202;28;92778;-68
2022/03/16 02:25:50;;;;;;;9.55;8.25;;;;;;;;;;4973296;28;93160;-69
2022/03/16 02:28:17;;;;;;;16.67;8.90;;;;;;;;;;4972591;28;93461;-68
2022/03/16 02:30:43;;;;;;;9.45;8.45;;;;;;;;;;4971489;28;92471;-68
2022/03/16 02:33:10;;;;;;;16.23;8.98;;;;;;;;;;4959766;28;93072;-68
2022/03/16 02:35:36;;;;;;;16.42;8.90;;;;;;;;;;4971225;28;93430;-69
2022/03/16 02:38:03;;;;;;;17.35;8.77;;;;;;;;;;4975535;28;92479;-68
2022/03/16 02:40:29;;;;;;;17.67;9.60;;;;;;;;;;4972286;28;96166;-68
2022/03/16 02:42:55;;;;;;;13.95;9.25;;;;;;;;;;4967313;28;92542;-68
2022/03/16 02:45:22;;;;;;;12.07;8.77;;;;;;;;;;4970897;28;93039;-68
2022/03/16 02:47:48;;;;;;;10.80;8.90;;;;;;;;;;4973213;28;93896;-68
2022/03/16 02:50:18;;;;;;;11.73;8.68;;;;;;;;;;4973511;28;92739;-68
2022/03/16 02:52:45;;;;;;;13.13;9.52;;;;;;;;;;4972344;28;92814;-68
2022/03/16 02:55:32;;;;;;;14.75;9.48;;;;;;;;;;4973416;28;94581;-68
2022/03/16 02:57:58;;;;;;;10.55;9.30;;;;;;;;;;4968911;28;92131;-68
2022/03/16 03:00:26;;;;;;;13.27;9.52;;;;;;;;;;4965563;28;93071;-68
2022/03/16 03:02:54;;;;;;;19.33;9.52;;;;;;;;;;4973180;28;92571;-68
2022/03/16 03:05:20;;;;;;;12.05;8.98;;;;;;;;;;4971000;28;95143;-67
2022/03/16 03:07:47;;;;;;;21.38;9.93;;;;;;;;;;4972803;28;93523;-68
2022/03/16 03:10:13;;;;;;;15.60;11.30;;;;;;;;;;4973496;28;92527;-68
2022/03/16 03:12:39;;;;;;;14.45;10.50;;;;;;;;;;4965029;28;93276;-68
2022/03/16 03:15:10;;;;;;;14.18;9.13;;;;;;;;;;4972005;28;93308;-68
2022/03/16 03:17:36;;;;;;;14.53;10.03;;;;;;;;;;4973188;28;92475;-68
2022/03/16 03:20:03;;;;;;;13.40;9.80;;;;;;;;;;4974082;28;93172;-68
2022/03/16 03:22:29;;;;;;;12.75;9.23;;;;;;;;;;4969150;28;91718;-68
2022/03/16 03:24:56;;;;;;;11.50;8.57;;;;;;;;;;4972675;28;92496;-68
2022/03/16 03:27:22;;;;;;;13.57;8.75;;;;;;;;;;4971010;28;92678;-68
2022/03/16 03:29:49;;;;;;;14.95;9.23;;;;;;;;;;4968566;28;94926;-68
2022/03/16 03:32:15;;;;;;;14.15;9.40;;;;;;;;;;4972730;28;95371;-68
2022/03/16 03:34:46;;;;;;;15.23;9.18;;;;;;;;;;4972721;28;94612;-67
2022/03/16 03:37:13;;;;;;;9.23;8.25;;;;;;;;;;4987260;28;92484;-68
2022/03/16 03:39:40;;;;;;;11.88;8.52;;;;;;;;;;4970571;28;93089;-68
2022/03/16 03:42:07;;;;;;;15.32;9.50;;;;;;;;;;4974269;28;93460;-68
2022/03/16 03:44:37;;;;;;;14.02;9.55;;;;;;;;;;4973267;28;93042;-67
2022/03/16 03:47:07;;;;;;;12.45;9.88;;;;;;;;;;4973585;28;92912;-68
2022/03/16 03:49:35;;;;;;;16.52;9.90;;;;;;;;;;4972341;28;92488;-68
2022/03/16 03:52:02;;;;;;;16.20;9.95;;;;;;;;;;4972362;28;93219;-68
2022/03/16 03:54:28;;;;;;;10.50;9.15;;;;;;;;;;4970986;28;95678;-68
2022/03/16 03:56:55;;;;;;;10.57;8.63;;;;;;;;;;4965035;28;93548;-68
2022/03/16 03:59:21;;;;;;;12.52;9.23;;;;;;;;;;4969445;28;93350;-68
2022/03/16 04:01:48;;;;;;;12.30;8.85;;;;;;;;;;4972368;28;93785;-68
2022/03/16 04:04:15;;;;;;;12.07;8.98;;;;;;;;;;4974753;28;92794;-68
2022/03/16 04:06:41;;;;;;;15.10;9.40;;;;;;;;;;4971482;28;94156;-68
2022/03/16 04:09:07;;;;;;;12.15;10.32;;;;;;;;;;4971424;28;92579;-68
2022/03/16 04:11:34;;;;;;;19.27;12.07;;;;;;;;;;4969756;28;93470;-68
2022/03/16 04:14:00;;;;;;;20.70;11.63;;;;;;;;;;4971136;28;92657;-69
2022/03/16 04:16:26;;;;;;;16.90;10.32;;;;;;;;;;4972140;28;93487;-69
2022/03/16 04:18:53;;;;;;;20.60;11.32;;;;;;;;;;4968494;28;95377;-68
2022/03/16 04:21:20;;;;;;;19.50;12.38;;;;;;;;;;4967153;28;93525;-68
2022/03/16 04:23:46;;;;;;;21.30;12.80;;;;;;;;;;4971547;28;92473;-68
2022/03/16 04:26:12;;;;;;;23.88;13.98;;;;;;;;;;4968238;28;93292;-68
2022/03/16 04:28:39;;;;;;;22.83;13.35;;;;;;;;;;4962221;28;92520;-68
2022/03/16 04:31:05;;;;;;;25.02;15.65;;;;;;;;;;4970564;28;93751;-68
2022/03/16 04:33:32;;;;;;;21.00;15.15;;;;;;;;;;4970032;28;94096;-69
2022/03/16 04:35:58;;;;;;;36.35;16.88;;;;;;;;;;4972264;28;91973;-69
2022/03/16 04:38:24;;;;;;;27.20;16.67;;;;;;;;;;4971657;28;92516;-69
2022/03/16 04:40:51;;;;;;;29.30;18.25;;;;;;;;;;4970535;28;93217;-68
2022/03/16 04:43:17;;;;;;;30.52;18.05;;;;;;;;;;4969211;28;94915;-68
2022/03/16 04:45:44;;;;;;;25.27;17.05;;;;;;;;;;4969919;28;95797;-68
2022/03/16 04:48:11;;;;;;;29.15;17.27;;;;;;;;;;4970106;28;93108;-67
2022/03/16 04:50:38;;;;;;;28.00;17.85;;;;;;;;;;4971384;28;93310;-68
2022/03/16 04:53:05;;;;;;;26.92;16.77;;;;;;;;;;4973797;28;93536;-68
2022/03/16 04:55:32;;;;;;;29.92;17.98;;;;;;;;;;4974316;28;92446;-68
2022/03/16 04:58:00;;;;;;;28.92;17.70;;;;;;;;;;4969353;28;93216;-68
2022/03/16 05:00:26;;;;;;;30.38;19.90;;;;;;;;;;4964362;28;95560;-68
2022/03/16 05:02:53;;;;;;;35.25;20.50;;;;;;;;;;4974249;28;92935;-68
2022/03/16 05:05:19;;;;;;;37.05;21.52;;;;;;;;;;4973766;28;93222;-68
2022/03/16 05:07:46;;;;;;;29.67;20.80;;;;;;;;;;4973961;28;95860;-68
2022/03/16 05:10:13;;;;;;;32.08;20.40;;;;;;;;;;4969418;28;95873;-68
2022/03/16 05:12:40;;;;;;;32.45;21.90;;;;;;;;;;4971045;28;95243;-68
2022/03/16 05:15:07;;;;;;;40.22;23.05;;;;;;;;;;4972576;28;92422;-68
2022/03/16 05:17:34;;;;;;;36.75;21.58;;;;;;;;;;4974748;28;93205;-68
2022/03/16 05:20:01;;;;;;;44.13;23.83;;;;;;;;;;4960395;28;94464;-68
2022/03/16 05:22:27;;;;;;;37.05;22.58;;;;;;;;;;4968720;28;92457;-68
2022/03/16 05:24:54;;;;;;;37.22;22.05;;;;;;;;;;4969699;28;93046;-68
2022/03/16 05:27:20;;;;;;;36.65;22.00;;;;;;;;;;4974498;28;93828;-68
2022/03/16 05:29:47;;;;;;;35.75;23.30;;;;;;;;;;4975292;28;92436;-68
2022/03/16 05:32:14;;;;;;;36.40;21.98;;;;;;;;;;4971878;28;95670;-68
2022/03/16 05:34:40;;;;;;;39.83;23.13;;;;;;;;;;4972500;28;92498;-68
2022/03/16 05:37:06;;;;;;;36.30;22.50;;;;;;;;;;4973916;28;93291;-68
2022/03/16 05:39:33;;;;;;;39.10;23.30;;;;;;;;;;4973256;28;93880;-67
2022/03/16 05:42:02;;;;;;;38.65;24.30;;;;;;;;;;4973355;28;92502;-67
2022/03/16 05:44:28;;;;;;;38.45;23.70;;;;;;;;;;4973627;28;93345;-68
2022/03/16 05:46:57;;;;;;;39.97;23.58;;;;;;;;;;4972807;28;93662;-68
2022/03/16 05:49:25;;;;;;;39.55;23.60;;;;;;;;;;4974793;28;91700;-68
2022/03/16 05:51:55;;;;;;;40.00;24.80;;;;;;;;;;4976221;28;92769;-68
2022/03/16 05:54:21;;;;;;;41.45;24.00;;;;;;;;;;4968792;28;92581;-68
2022/03/16 05:56:48;;;;;;;41.70;25.00;;;;;;;;;;4968504;28;95390;-68
2022/03/16 05:59:14;;;;;;;37.55;25.05;;;;;;;;;;4972206;28;93746;-68
2022/03/16 06:01:40;;;;;;;42.70;26.25;;;;;;;;;;4972423;28;92654;-69
2022/03/16 06:04:07;;;;;;;36.53;24.65;;;;;;;;;;4972157;28;93587;-68
2022/03/16 06:06:33;;;;;;;39.85;23.55;;;;;;;;;;4968908;28;94966;-68
2022/03/16 06:08:59;;;;;;;40.80;25.25;;;;;;;;;;4968609;28;92553;-68
2022/03/16 06:11:26;;;;;;;39.38;23.48;;;;;;;;;;4970312;28;93296;-68
2022/03/16 06:13:53;;;;;;;39.17;24.90;;;;;;;;;;4975415;28;92508;-68
2022/03/16 06:16:19;;;;;;;37.45;24.63;;;;;;;;;;4955114;28;92606;-69
2022/03/16 06:18:45;;;;;;;47.50;25.63;;;;;;;;;;4966978;28;93612;-69
2022/03/16 06:21:11;;;;;;;45.50;26.00;;;;;;;;;;4963736;28;95369;-68
2022/03/16 06:23:38;;;;;;;43.42;24.92;;;;;;;;;;4966179;28;95687;-71
2022/03/16 06:26:05;;;;;;;40.80;25.08;;;;;;;;;;4962761;28;93634;-68
2022/03/16 06:28:31;;;;;;;41.20;24.65;;;;;;;;;;4966631;28;92408;-69
2022/03/16 06:30:58;;;;;;;37.63;23.42;;;;;;;;;;4972319;28;93251;-69
2022/03/16 06:33:27;;;;;;;38.63;24.02;;;;;;;;;;4971560;28;93398;-69
2022/03/16 06:35:53;;;;;;;36.80;24.15;;;;;;;;;;4973963;28;92586;-69
2022/03/16 06:38:19;;;;;;;39.30;23.92;;;;;;;;;;4960757;28;93137;-69
2022/03/16 06:40:46;;;;;;;38.80;23.02;;;;;;;;;;4965678;28;92481;-69
2022/03/16 06:43:12;;;;;;;35.72;22.20;;;;;;;;;;4970413;28;94293;-69
2022/03/16 06:45:38;;;;;;;44.83;22.92;;;;;;;;;;4967631;28;95559;-69
2022/03/16 06:48:05;;;;;;;47.17;24.63;;;;;;;;;;4961776;28;92405;-70
2022/03/16 06:50:31;;;;;;;41.22;22.65;;;;;;;;;;4965126;28;95206;-70
2022/03/16 06:52:58;;;;;;;41.95;23.90;;;;;;;;;;4965881;28;93292;-70
2022/03/16 06:55:26;;;;;;;40.97;22.65;;;;;;;;;;4968560;28;92393;-70
2022/03/16 06:57:52;;;;;;;47.55;23.33;;;;;;;;;;4967757;28;93562;-70
2022/03/16 07:00:19;;;;;;;38.50;22.55;;;;;;;;;;4958723;28;92818;-70
2022/03/16 07:02:49;;;;;;;44.10;25.08;;;;;;;;;;4972667;28;93721;-69
2022/03/16 07:05:16;;;;;;;38.00;23.00;;;;;;;;;;4970314;28;93418;-70
2022/03/16 07:07:47;;;;;;;41.10;22.98;;;;;;;;;;4957236;28;92538;-70
2022/03/16 07:10:13;;;;;;;38.60;21.88;;;;;;;;;;4967340;28;95309;-69
2022/03/16 07:12:39;;;;;;;37.92;23.40;;;;;;;;;;4952981;28;93295;-69
2022/03/16 07:15:06;;;;;;;38.95;21.33;;;;;;;;;;4967641;28;92889;-69
2022/03/16 07:17:32;;;;;;;39.25;23.20;;;;;;;;;;4963431;28;92605;-70
2022/03/16 07:19:59;;;;;;;35.55;21.38;;;;;;;;;;4964288;28;92932;-71
2022/03/16 07:22:25;;;;;;;34.22;21.02;;;;;;;;;;4964382;28;93513;-70
2022/03/16 07:25:11;;;;;;;37.15;21.65;;;;;;;;;;4969441;28;92485;-70
2022/03/16 07:27:39;;;;;;;34.25;21.60;;;;;;;;;;4966576;28;92502;-69
2022/03/16 07:30:09;;;;;;;39.40;20.92;;;;;;;;;;4966802;28;92819;-70
2022/03/16 07:32:39;;;;;;;37.65;21.42;;;;;;;;;;4964018;28;93515;-70
2022/03/16 07:35:11;;;;;;;31.27;19.97;;;;;;;;;;4970294;28;95192;-70
2022/03/16 07:37:39;;;;;;;28.65;19.20;;;;;;;;;;4970644;28;95885;-69
2022/03/16 07:40:06;;;;;;;35.25;19.38;;;;;;;;;;4972988;28;93671;-70
2022/03/16 07:42:33;;;;;;;30.25;18.20;;;;;;;;;;4958823;28;93288;-69
2022/03/16 07:45:00;;;;;;;30.52;17.30;;;;;;;;;;4986445;28;93217;-70
2022/03/16 07:47:26;;;;;;;24.25;16.60;;;;;;;;;;4971094;28;92429;-70
2022/03/16 07:50:04;;;;;;;25.77;16.65;;;;;;;;;;4957986;28;94011;-69
2022/03/16 07:52:31;;;;;;;29.98;15.40;;;;;;;;;;4964668;28;92694;-69
2022/03/16 07:54:58;;;;;;;25.02;15.23;;;;;;;;;;4969110;28;93596;-69
2022/03/16 07:57:25;;;;;;;23.00;14.57;;;;;;;;;;4965581;28;93287;-69
2022/03/16 07:59:51;;;;;;;25.95;15.20;;;;;;;;;;4963895;28;95924;-69
2022/03/16 08:02:18;;;;;;;21.17;14.07;;;;;;;;;;4967088;28;92635;-69
2022/03/16 08:04:44;;;;;;;29.17;13.88;;;;;;;;;;4966163;28;93965;-69
2022/03/16 08:07:10;;;;;;;21.40;13.82;;;;;;;;;;4971420;28;93380;-70
2022/03/16 08:09:37;;;;;;;20.42;13.40;;;;;;;;;;4971722;28;93530;-70
2022/03/16 08:12:03;;;;;;;22.10;13.45;;;;;;;;;;4960987;28;93397;-69
2022/03/16 08:14:30;;;;;;;20.33;13.60;;;;;;;;;;4953087;28;93202;-69
2022/03/16 08:16:57;;;;;;;29.77;12.88;;;;;;;;;;4969320;28;93508;-70
2022/03/16 08:19:23;;;;;;;23.25;13.57;;;;;;;;;;4971895;28;93427;-70
2022/03/16 08:21:50;;;;;;;17.75;12.23;;;;;;;;;;4970342;28;92481;-70
2022/03/16 08:24:16;;;;;;;24.45;12.77;;;;;;;;;;4972844;28;94831;-70
2022/03/16 08:26:43;;;;;;;20.70;12.02;;;;;;;;;;4971288;28;92432;-69
2022/03/16 08:29:09;;;;;;;19.77;11.60;;;;;;;;;;4974547;28;94854;-69
2022/03/16 08:31:35;;;;;;;15.73;11.27;;;;;;;;;;4973950;28;93683;-70
2022/03/16 08:34:02;;;;;;;16.50;11.20;;;;;;;;;;4974343;28;92449;-70
2022/03/16 08:36:29;;;;;;;25.58;10.95;;;;;;;;;;4975520;28;93703;-70
2022/03/16 08:38:55;;;;;;;16.00;10.77;;;;;;;;;;4974431;28;92709;-69
2022/03/16 08:41:21;;;;;;;23.75;11.95;;;;;;;;;;4973578;28;91884;-70
2022/03/16 08:43:47;;;;;;;27.58;11.82;;;;;;;;;;4959670;28;92493;-69
2022/03/16 08:46:14;;;;;;;19.10;11.60;;;;;;;;;;4977131;28;94008;-70
2022/03/16 08:48:40;;;;;;;19.15;11.85;;;;;;;;;;4967023;28;95081;-69
2022/03/16 08:51:08;;;;;;;15.60;11.10;;;;;;;;;;4974184;28;93869;-70
2022/03/16 08:53:34;;;;;;;20.92;11.30;;;;;;;;;;4973842;28;92364;-69
2022/03/16 08:56:01;;;;;;;16.70;10.27;;;;;;;;;;4974032;28;93264;-70
2022/03/16 08:58:27;;;;;;;18.50;11.23;;;;;;;;;;4953070;28;94644;-70
2022/03/16 09:00:54;;;;;;;18.95;11.05;;;;;;;;;;4973412;28;92985;-69
2022/03/16 09:03:20;;;;;;;18.33;12.00;;;;;;;;;;4975078;28;93383;-70
2022/03/16 09:05:47;;;;;;;16.20;11.63;;;;;;;;;;4977603;28;92648;-69
2022/03/16 09:08:13;;;;;;;18.05;11.18;;;;;;;;;;4973661;28;92427;-69
2022/03/16 09:10:39;;;;;;;17.45;12.38;;;;;;;;;;4970590;28;94186;-70
2022/03/16 09:13:06;;;;;;;16.98;12.02;;;;;;;;;;4971796;28;94968;-69
2022/03/16 09:15:36;;;;;;;17.27;10.98;;;;;;;;;;4973280;28;96047;-70
2022/03/16 09:18:03;;;;;;;18.42;11.38;;;;;;;;;;4973709;28;93467;-70
2022/03/16 09:20:29;;;;;;;17.85;11.40;;;;;;;;;;4972473;28;92524;-69
2022/03/16 09:22:55;;;;;;;13.38;10.00;;;;;;;;;;4954041;28;94331;-70
2022/03/16 09:25:24;;;;;;;21.00;10.68;;;;;;;;;;4966824;28;93417;-70
2022/03/16 09:27:50;;;;;;;17.92;10.30;;;;;;;;;;4976909;28;92412;-70
2022/03/16 09:30:17;;;;;;;18.65;11.32;;;;;;;;;;4974835;28;92565;-70
2022/03/16 09:32:43;;;;;;;18.70;9.98;;;;;;;;;;4956382;28;93002;-70
2022/03/16 09:35:09;;;;;;;13.55;10.23;;;;;;;;;;4964556;28;92595;-70
2022/03/16 09:37:36;;;;;;;12.55;9.48;;;;;;;;;;4963402;28;96399;-71
2022/03/16 09:40:02;;;;;;;15.02;9.23;;;;;;;;;;4956902;28;92509;-71
2022/03/16 09:42:30;;;;;;;12.85;8.25;;;;;;;;;;4958381;28;93253;-71
2022/03/16 09:44:59;;;;;;;11.00;8.90;;;;;;;;;;4962956;28;93854;-71
2022/03/16 09:47:25;;;;;;;13.50;9.50;;;;;;;;;;4975227;28;92707;-71
2022/03/16 09:49:52;;;;;;;13.15;9.27;;;;;;;;;;4977273;28;92438;-72
2022/03/16 09:52:19;;;;;;;14.43;8.55;;;;;;;;;;4973225;28;92454;-71
2022/03/16 09:54:46;;;;;;;17.40;8.02;;;;;;;;;;4975011;28;96229;-72
2022/03/16 09:57:12;;;;;;;14.75;8.80;;;;;;;;;;4963447;28;93280;-71
2022/03/16 09:59:39;;;;;;;15.07;7.80;;;;;;;;;;4974895;28;92924;-72
2022/03/16 10:02:09;;;;;;;15.20;9.00;;;;;;;;;;4959199;28;95188;-71
2022/03/16 10:04:37;;;;;;;13.63;7.57;;;;;;;;;;4959260;28;93965;-71
2022/03/16 10:07:05;;;;;;;14.35;7.93;;;;;;;;;;4972779;28;92557;-72
2022/03/16 10:15:13;;;;;;;9.45;7.57;;;;;;;;;;4964466;28;93664;-71
2022/03/16 10:17:43;;;;;;;11.32;7.95;;;;;;;;;;4966023;28;93654;-71
2022/03/16 10:20:10;;;;;;;16.33;7.63;;;;;;;;;;4967834;28;92182;-70
2022/03/16 10:22:40;;;;;;;7.93;7.05;;;;;;;;;;4966085;28;92577;-71
2022/03/16 10:25:07;;;;;;;10.07;7.30;;;;;;;;;;4958217;28;94488;-71
2022/03/16 10:27:36;;;;;;;13.50;7.10;;;;;;;;;;4972658;28;94900;-71
2022/03/16 10:30:05;;;;;;;9.57;6.60;;;;;;;;;;4972836;28;96011;-71
2022/03/16 10:32:38;;;;;;;10.15;6.63;;;;;;;;;;4968419;28;93562;-71
2022/03/16 10:35:05;;;;;;;12.18;6.97;;;;;;;;;;4976872;28;93145;-71
2022/03/16 10:37:34;;;;;;;8.23;7.43;;;;;;;;;;4973803;28;92455;-71
2022/03/16 10:40:01;;;;;;;8.03;7.23;;;;;;;;;;4969869;28;92598;-70
2022/03/16 10:48:22;;;;;;;7.90;6.83;;;;;;;;;;4973005;28;93005;-69
2022/03/16 10:50:50;;;;;;;7.38;6.68;;;;;;;;;;4972250;28;93701;-68
2022/03/16 10:53:17;;;;;;;7.70;6.20;;;;;;;;;;4970270;28;95955;-69
2022/03/16 10:55:44;;;;;;;14.27;6.68;;;;;;;;;;4973507;28;92394;-68
2022/03/16 10:58:12;;;;;;;12.25;7.13;;;;;;;;;;4972484;28;93196;-68
2022/03/16 11:00:39;;;;;;;7.70;6.90;;;;;;;;;;4965909;28;93106;-69
2022/03/16 11:03:15;;;;;;;14.43;6.85;;;;;;;;;;4952751;28;93294;-68
2022/03/16 11:05:42;;;;;;;8.38;7.32;;;;;;;;;;4969703;28;92916;-69
2022/03/16 11:08:09;;;;;;;7.60;6.57;;;;;;;;;;4967351;28;92570;-70
2022/03/16 11:10:39;;;;;;;7.57;6.85;;;;;;;;;;4963880;28;93220;-68
2022/03/16 11:16:08;;;;;;;8.80;6.15;;;;;;;;;;4984418;28;92911;-70
2022/03/16 11:18:35;;;;;;;8.77;6.18;;;;;;;;;;4991996;28;94894;-71
2022/03/16 11:21:08;;;;;;;7.22;6.43;;;;;;;;;;4983414;28;92787;-70
2022/03/16 11:26:28;;;;;;;7.40;6.35;;;;;;;;;;4984366;28;93638;-71
2022/03/16 11:28:58;;;;;;;7.78;6.25;;;;;;;;;;4973659;28;92558;-71
2022/03/16 11:31:24;;;;;;;;;;;;;;;;;;4991385;28;93068;-71
2022/03/16 11:33:52;;;;;;;6.63;6.00;;;;;;;;;;4990718;28;124134;-71
2022/03/16 11:36:50;;;;;;;11.07;6.97;;;;;;;;;;4989706;28;91831;-72
2022/03/16 11:39:20;;;;;;;10.00;6.72;;;;;;;;;;4929690;28;92637;-71
2022/03/16 11:41:51;;;;;;;14.48;6.65;;;;;;;;;;4978367;28;95282;-71
2022/03/16 11:44:26;;;;;;;11.38;6.57;;;;;;;;;;4988708;28;94980;-71
2022/03/16 11:46:55;;;;;;;10.52;7.07;;;;;;;;;;4988457;28;93872;-71
2022/03/16 11:49:29;;;;;;;7.30;6.53;;;;;;;;;;4987906;28;92663;-71
2022/03/16 11:51:57;;;;;;;9.38;7.03;;;;;;;;;;4972199;28;93547;-71
2022/03/16 11:54:40;;;;;;;7.80;6.82;;;;;;;;;;4970816;28;93301;-71
2022/03/16 11:57:07;;;;;;;9.90;6.68;;;;;;;;;;4970001;28;92850;-71
2022/03/16 11:59:35;;;;;;;7.85;7.05;;;;;;;;;;4954039;28;92961;-71
2022/03/16 12:02:09;;;;;;;8.95;6.88;;;;;;;;;;4963911;28;92983;-71
2022/03/16 12:04:48;;;;;;;7.65;6.85;;;;;;;;;;4975138;28;92724;-71
2022/03/16 12:07:16;;;;;;;18.70;7.10;;;;;;;;;;4965502;28;92635;-71
2022/03/16 12:09:44;;;;;;;12.18;6.93;;;;;;;;;;4969914;28;95630;-71
2022/03/16 12:15:01;;;;;;;15.18;7.28;;;;;;;;;;4970022;28;93871;-70
2022/03/16 12:17:28;;;;;;;13.63;7.60;;;;;;;;;;4976272;28;93434;-71
2022/03/16 12:20:10;;;;;;;12.85;7.40;;;;;;;;;;4966320;28;93301;-70
2022/03/16 12:22:37;;;;;;;8.40;7.50;;;;;;;;;;4958940;28;92537;-70
2022/03/16 12:25:22;;;;;;;8.40;7.55;;;;;;;;;;4976786;28;92453;-70
2022/03/16 12:30:38;;;;;;;10.93;7.72;;;;;;;;;;4973034;28;92552;-70
2022/03/16 12:33:11;;;;;;;11.63;7.80;;;;;;;;;;4975916;28;93109;-70
2022/03/16 12:35:38;;;;;;;14.48;8.02;;;;;;;;;;4974462;28;95925;-70
2022/03/16 12:38:10;;;;;;;8.60;7.57;;;;;;;;;;4975143;28;92442;-70
2022/03/16 12:42:31;;;;;;;10.52;7.70;;;;;;;;;;4983482;28;92428;-70
2022/03/16 12:43:27;;;;;;;10.20;9.20;;;;;;;;;;4968206;28;93381;-70
2022/03/16 12:45:59;;;;;;;9.00;8.10;;;;;;;;;;4963720;28;93149;-70
2022/03/16 12:48:26;;;;;;;17.08;9.13;;;;;;;;;;4976170;28;93091;-70
2022/03/16 12:50:52;;;;;;;10.68;8.77;;;;;;;;;;4979314;28;92696;-70
2022/03/16 12:53:44;;;;;;;12.63;9.18;;;;;;;;;;4976155;28;94157;-70
2022/03/16 12:56:17;;;;;;;12.60;8.32;;;;;;;;;;4955831;28;93539;-70
2022/03/16 12:58:56;;;;;;;18.95;8.35;;;;;;;;;;4964088;28;92503;-70
2022/03/16 13:01:23;;;;;;;16.20;8.52;;;;;;;;;;4973865;28;94822;-71
2022/03/16 13:04:04;;;;;;;10.18;8.68;;;;;;;;;;4975049;28;96300;-70
2022/03/16 13:06:33;;;;;;;13.65;9.00;;;;;;;;;;4974941;28;92547;-70
2022/03/16 13:09:05;;;;;;;9.33;8.40;;;;;;;;;;4973892;28;93109;-70
2022/03/16 13:11:32;;;;;;;8.90;8.00;;;;;;;;;;4974531;28;93711;-70
2022/03/16 13:13:59;;;;;;;12.40;8.85;;;;;;;;;;4971998;28;92527;-70
2022/03/16 13:16:29;;;;;;;12.98;8.32;;;;;;;;;;4975271;28;93862;-70
2022/03/16 13:18:55;;;;;;;17.30;8.90;;;;;;;;;;4975846;28;91685;-70
2022/03/16 13:21:23;;;;;;;10.45;8.13;;;;;;;;;;4964590;28;92427;-70
2022/03/16 13:23:59;;;;;;;12.80;8.50;;;;;;;;;;4956796;28;93227;-69
2022/03/16 13:26:27;;;;;;;13.05;9.18;;;;;;;;;;4953235;28;94901;-69
2022/03/16 13:28:56;;;;;;;18.20;9.40;;;;;;;;;;4972815;28;95709;-70
2022/03/16 13:31:29;;;;;;;13.10;9.18;;;;;;;;;;4974572;28;93789;-69
2022/03/16 13:34:01;;;;;;;10.80;8.63;;;;;;;;;;4975465;28;92500;-70
2022/03/16 13:36:35;;;;;;;17.75;9.52;;;;;;;;;;4974519;28;93380;-70
2022/03/16 13:39:15;;;;;;;12.27;9.02;;;;;;;;;;4972952;28;92741;-70
2022/03/16 13:42:15;;;;;;;11.53;9.27;;;;;;;;;;4961595;28;92490;-69
2022/03/16 13:44:44;;;;;;;12.45;9.75;;;;;;;;;;4966880;28;92632;-70
2022/03/16 13:47:17;;;;;;;15.35;10.07;;;;;;;;;;4975518;28;92913;-70
2022/03/16 13:49:44;;;;;;;12.95;10.30;;;;;;;;;;4966296;28;94606;-70
2022/03/16 13:52:12;;;;;;;10.70;9.38;;;;;;;;;;4952537;28;95761;-70
2022/03/16 13:54:38;;;;;;;11.57;9.68;;;;;;;;;;4962571;28;92511;-70
2022/03/16 13:57:09;;;;;;;20.50;10.13;;;;;;;;;;4969803;28;94393;-70
2022/03/16 13:59:35;;;;;;;15.27;9.70;;;;;;;;;;4989213;28;92531;-70
2022/03/16 14:02:22;;;;;;;13.68;9.32;;;;;;;;;;4974341;28;92752;-70
2022/03/16 14:04:59;;;;;;;24.35;9.98;;;;;;;;;;4973730;28;93432;-70
2022/03/16 14:07:27;;;;;;;14.35;9.65;;;;;;;;;;4973707;28;92660;-70
2022/03/16 14:09:54;;;;;;;15.38;8.75;;;;;;;;;;4973256;28;95660;-70
2022/03/16 14:12:31;;;;;;;14.13;10.02;;;;;;;;;;4971747;28;93962;-70
2022/03/16 14:15:06;;;;;;;17.00;10.50;;;;;;;;;;4969175;28;94219;-70
2022/03/16 14:17:42;;;;;;;12.70;10.55;;;;;;;;;;4972148;28;94827;-70
2022/03/16 14:20:09;;;;;;;12.98;10.65;;;;;;;;;;4978168;28;93808;-70
2022/03/16 14:22:36;;;;;;;13.50;10.95;;;;;;;;;;4973285;28;93077;-70
2022/03/16 14:25:21;;;;;;;18.92;11.13;;;;;;;;;;4970282;28;93498;-69
2022/03/16 14:27:48;;;;;;;18.20;10.25;;;;;;;;;;4971933;28;92493;-69
2022/03/16 14:30:16;;;;;;;15.27;10.13;;;;;;;;;;4972903;28;93380;-70
2022/03/16 14:32:42;;;;;;;22.45;9.70;;;;;;;;;;4972770;28;93444;-69
2022/03/16 14:35:09;;;;;;;16.63;10.65;;;;;;;;;;4974317;28;91696;-70
2022/03/16 14:37:35;;;;;;;13.13;10.75;;;;;;;;;;4973236;28;92650;-70
2022/03/16 14:40:02;;;;;;;13.40;10.23;;;;;;;;;;4967278;28;93335;-70
2022/03/16 14:42:28;;;;;;;13.30;10.05;;;;;;;;;;4967111;28;94901;-69
2022/03/16 14:44:55;;;;;;;18.33;10.15;;;;;;;;;;4961871;28;93947;-70
2022/03/16 14:47:21;;;;;;;12.00;9.13;;;;;;;;;;4970356;28;92516;-69
2022/03/16 14:49:47;;;;;;;14.38;10.00;;;;;;;;;;4973566;28;94293;-69
2022/03/16 14:52:14;;;;;;;20.15;9.52;;;;;;;;;;4967817;28;93328;-69
2022/03/16 14:54:41;;;;;;;16.45;10.40;;;;;;;;;;4973073;28;92429;-69